<?xml version='1.0' encoding='UTF-8'?><gpx version="1.1" creator="JPX - https://github.com/jenetics/jpx" xmlns="http://www.topografix.com/GPX/1/1"><trk><trkseg><trkpt lat="45.340011310732855" lon="9.646882618020589"><ele>74.0</ele><time>2026-04-25T08:15:54.009Z</time></trkpt><trkpt lat="45.33994496268347" lon="9.64692609015521"><ele>74.0</ele><time>2026-04-25T08:15:58.007Z</time></trkpt><trkpt lat="45.33986593411774" lon="9.646953565875242"><ele>74.0</ele><time>2026-04-25T08:16:01.006Z</time></trkpt><trkpt lat="45.33978772017043" lon="9.646965995848822"><ele>74.0</ele><time>2026-04-25T08:16:04.005Z</time></trkpt><trkpt lat="45.339714612723014" lon="9.64699618923297"><ele>74.0</ele><time>2026-04-25T08:16:07.004Z</time></trkpt><trkpt lat="45.33963632369268" lon="9.646952721951807"><ele>74.0</ele><time>2026-04-25T08:16:11.003Z</time></trkpt><trkpt lat="45.33956896123737" lon="9.646936161256434"><ele>74.57142857142857</ele><time>2026-04-25T08:16:14.002Z</time></trkpt><trkpt lat="45.33950223615616" lon="9.646960467018587"><ele>75.14285714285714</ele><time>2026-04-25T08:16:16.002Z</time></trkpt><trkpt lat="45.339423661514076" lon="9.646953179369806"><ele>75.71428571428572</ele><time>2026-04-25T08:16:19.001Z</time></trkpt><trkpt lat="45.339352805494826" lon="9.64695816899967"><ele>76.28571428571428</ele><time>2026-04-25T08:16:21.001Z</time></trkpt><trkpt lat="45.339284875116235" lon="9.646970164915986"><ele>76.85714285714285</ele><time>2026-04-25T08:16:24.001Z</time></trkpt><trkpt lat="45.33920065242998" lon="9.646982918804802"><ele>77.42857142857143</ele><time>2026-04-25T08:16:27.001Z</time></trkpt><trkpt lat="45.33912627585569" lon="9.647011823417508"><ele>78.0</ele><time>2026-04-25T08:16:30Z</time></trkpt><trkpt lat="45.33905944892285" lon="9.647026736525856"><ele>78.0</ele><time>2026-04-25T08:16:33Z</time></trkpt><trkpt lat="45.338989861915735" lon="9.647030033312149"><ele>78.0</ele><time>2026-04-25T08:16:36Z</time></trkpt><trkpt lat="45.33891952195253" lon="9.647050720223751"><ele>78.0</ele><time>2026-04-25T08:16:39Z</time></trkpt><trkpt lat="45.338845931847736" lon="9.64707191216144"><ele>78.0</ele><time>2026-04-25T08:16:42Z</time></trkpt><trkpt lat="45.33877492844932" lon="9.647102065968973"><ele>78.0</ele><time>2026-04-25T08:16:45Z</time></trkpt><trkpt lat="45.33868524738941" lon="9.647117382299824"><ele>78.0</ele><time>2026-04-25T08:16:48.999Z</time></trkpt><trkpt lat="45.338615432563834" lon="9.647126226570402"><ele>78.16666666666667</ele><time>2026-04-25T08:16:50.999Z</time></trkpt><trkpt lat="45.33852809842177" lon="9.647150875657227"><ele>78.33333333333333</ele><time>2026-04-25T08:16:53.999Z</time></trkpt><trkpt lat="45.338437117842986" lon="9.647178175713998"><ele>78.5</ele><time>2026-04-25T08:16:56.999Z</time></trkpt><trkpt lat="45.33838918790761" lon="9.64711602601191"><ele>78.66666666666666</ele><time>2026-04-25T08:16:58.999Z</time></trkpt><trkpt lat="45.33839876903986" lon="9.647010301685365"><ele>78.83333333333333</ele><time>2026-04-25T08:17:01.999Z</time></trkpt><trkpt lat="45.338383172646964" lon="9.646916110533986"><ele>79.0</ele><time>2026-04-25T08:17:03.999Z</time></trkpt><trkpt lat="45.338368877714615" lon="9.64678658623603"><ele>78.66666666666666</ele><time>2026-04-25T08:17:07.999Z</time></trkpt><trkpt lat="45.338350003951" lon="9.646682365371605"><ele>78.33333333333333</ele><time>2026-04-25T08:17:10.999Z</time></trkpt><trkpt lat="45.33833752889961" lon="9.646583665188473"><ele>78.0</ele><time>2026-04-25T08:17:13.999Z</time></trkpt><trkpt lat="45.338327827068305" lon="9.646476153848203"><ele>77.66666666666667</ele><time>2026-04-25T08:17:16.999Z</time></trkpt><trkpt lat="45.338270632913" lon="9.64640659970372"><ele>77.33333333333334</ele><time>2026-04-25T08:17:19.999Z</time></trkpt><trkpt lat="45.33820551570775" lon="9.646370451812013"><ele>77.0</ele><time>2026-04-25T08:17:22.999Z</time></trkpt><trkpt lat="45.33811679767401" lon="9.646370834429812"><ele>76.66666666666667</ele><time>2026-04-25T08:17:24.999Z</time></trkpt><trkpt lat="45.33803219078424" lon="9.646347213538343"><ele>76.33333333333334</ele><time>2026-04-25T08:17:27.999Z</time></trkpt><trkpt lat="45.33796755567587" lon="9.646348127861486"><ele>76.0</ele><time>2026-04-25T08:17:29.999Z</time></trkpt><trkpt lat="45.33787907818005" lon="9.646383257298616"><ele>75.66666666666667</ele><time>2026-04-25T08:17:31.999Z</time></trkpt><trkpt lat="45.337841321855024" lon="9.646309393609524"><ele>75.33333333333333</ele><time>2026-04-25T08:17:34.999Z</time></trkpt><trkpt lat="45.33779337244663" lon="9.64624967143027"><ele>75.0</ele><time>2026-04-25T08:17:37.999Z</time></trkpt><trkpt lat="45.33775550741731" lon="9.64614723845306"><ele>74.99999999999999</ele><time>2026-04-25T08:17:40.999Z</time></trkpt><trkpt lat="45.337681551648075" lon="9.64615132723811"><ele>75.0</ele><time>2026-04-25T08:17:43.999Z</time></trkpt><trkpt lat="45.33760754798823" lon="9.646137649663816"><ele>75.0</ele><time>2026-04-25T08:17:46.999Z</time></trkpt><trkpt lat="45.33753558734044" lon="9.646162840530721"><ele>75.0</ele><time>2026-04-25T08:17:49.998Z</time></trkpt><trkpt lat="45.337460957255374" lon="9.64618507137139"><ele>75.0</ele><time>2026-04-25T08:17:52.998Z</time></trkpt><trkpt lat="45.33738388004615" lon="9.646205551355818"><ele>74.99999999999999</ele><time>2026-04-25T08:17:55.998Z</time></trkpt><trkpt lat="45.337317260652235" lon="9.646229948993321"><ele>75.0</ele><time>2026-04-25T08:17:59.999Z</time></trkpt><trkpt lat="45.33721647961226" lon="9.646256851759137"><ele>74.83333333333333</ele><time>2026-04-25T08:18:03.999Z</time></trkpt><trkpt lat="45.33713617454299" lon="9.646286345758439"><ele>74.66666666666667</ele><time>2026-04-25T08:18:08Z</time></trkpt><trkpt lat="45.33705429640206" lon="9.646323633736245"><ele>74.5</ele><time>2026-04-25T08:18:11Z</time></trkpt><trkpt lat="45.336983467207084" lon="9.646343866593202"><ele>74.33333333333334</ele><time>2026-04-25T08:18:14Z</time></trkpt><trkpt lat="45.33692170519029" lon="9.646366590137617"><ele>74.16666666666667</ele><time>2026-04-25T08:18:17Z</time></trkpt><trkpt lat="45.336841937834386" lon="9.646395490386974"><ele>74.0</ele><time>2026-04-25T08:18:20Z</time></trkpt><trkpt lat="45.336772522869104" lon="9.64641475074307"><ele>74.0</ele><time>2026-04-25T08:18:23Z</time></trkpt><trkpt lat="45.33670272429404" lon="9.646445783149778"><ele>74.0</ele><time>2026-04-25T08:18:26Z</time></trkpt><trkpt lat="45.33663386147382" lon="9.646459319391546"><ele>74.0</ele><time>2026-04-25T08:18:29Z</time></trkpt><trkpt lat="45.336564158683174" lon="9.646495294821081"><ele>74.0</ele><time>2026-04-25T08:18:32Z</time></trkpt><trkpt lat="45.33650883275049" lon="9.646553109779672"><ele>74.0</ele><time>2026-04-25T08:18:35Z</time></trkpt><trkpt lat="45.3364508601361" lon="9.64663192737481"><ele>74.0</ele><time>2026-04-25T08:18:39Z</time></trkpt><trkpt lat="45.33640494969798" lon="9.646719583257315"><ele>74.0</ele><time>2026-04-25T08:18:42Z</time></trkpt><trkpt lat="45.33636448588559" lon="9.64679907823816"><ele>74.0</ele><time>2026-04-25T08:18:45Z</time></trkpt><trkpt lat="45.33633008408631" lon="9.646886077305968"><ele>74.0</ele><time>2026-04-25T08:18:48Z</time></trkpt><trkpt lat="45.33627846232718" lon="9.646946052946827"><ele>74.0</ele><time>2026-04-25T08:18:51Z</time></trkpt><trkpt lat="45.336218426502484" lon="9.647040175735347"><ele>74.0</ele><time>2026-04-25T08:18:54.999Z</time></trkpt><trkpt lat="45.336154935159456" lon="9.64715279116052"><ele>74.0</ele><time>2026-04-25T08:18:57.999Z</time></trkpt><trkpt lat="45.33607690828545" lon="9.647243441666605"><ele>74.0</ele><time>2026-04-25T08:19:00.999Z</time></trkpt><trkpt lat="45.336035001706435" lon="9.647321828844024"><ele>74.0</ele><time>2026-04-25T08:19:03.999Z</time></trkpt><trkpt lat="45.33597860500975" lon="9.647394254079876"><ele>74.0</ele><time>2026-04-25T08:19:05.999Z</time></trkpt><trkpt lat="45.335916536316" lon="9.647473251736805"><ele>74.0</ele><time>2026-04-25T08:19:08.999Z</time></trkpt><trkpt lat="45.33586099636048" lon="9.647556225845326"><ele>74.0</ele><time>2026-04-25T08:19:12.999Z</time></trkpt><trkpt lat="45.33581813171557" lon="9.647624997884373"><ele>74.0</ele><time>2026-04-25T08:19:15.999Z</time></trkpt><trkpt lat="45.33577028778341" lon="9.6476917220078"><ele>74.0</ele><time>2026-04-25T08:19:18.999Z</time></trkpt><trkpt lat="45.335733722325095" lon="9.64776484515481"><ele>74.0</ele><time>2026-04-25T08:19:21.999Z</time></trkpt><trkpt lat="45.335687033784104" lon="9.647838578278627"><ele>74.16666666666667</ele><time>2026-04-25T08:19:24.999Z</time></trkpt><trkpt lat="45.33562275743473" lon="9.64791202025689"><ele>74.33333333333334</ele><time>2026-04-25T08:19:28.999Z</time></trkpt><trkpt lat="45.335563397035735" lon="9.648005298044659"><ele>74.5</ele><time>2026-04-25T08:19:31.999Z</time></trkpt><trkpt lat="45.335508973455646" lon="9.64809177144198"><ele>74.66666666666667</ele><time>2026-04-25T08:19:34.999Z</time></trkpt><trkpt lat="45.33545556315169" lon="9.648170777246232"><ele>74.83333333333333</ele><time>2026-04-25T08:19:37.999Z</time></trkpt><trkpt lat="45.33539098555774" lon="9.648255261730716"><ele>75.0</ele><time>2026-04-25T08:19:40.999Z</time></trkpt><trkpt lat="45.33532459171867" lon="9.648341920066791"><ele>75.16666666666667</ele><time>2026-04-25T08:19:43.999Z</time></trkpt><trkpt lat="45.33529031482525" lon="9.648426123432715"><ele>75.33333333333333</ele><time>2026-04-25T08:19:45.999Z</time></trkpt><trkpt lat="45.33525992450822" lon="9.648504798885433"><ele>75.5</ele><time>2026-04-25T08:19:47.999Z</time></trkpt><trkpt lat="45.335219935071265" lon="9.648618351843151"><ele>75.66666666666666</ele><time>2026-04-25T08:19:50.999Z</time></trkpt><trkpt lat="45.33522915061533" lon="9.648735083285963"><ele>75.83333333333333</ele><time>2026-04-25T08:19:53.999Z</time></trkpt><trkpt lat="45.33525694703361" lon="9.64883773180732"><ele>76.0</ele><time>2026-04-25T08:19:56.999Z</time></trkpt><trkpt lat="45.33526322794026" lon="9.64894140811298"><ele>76.0</ele><time>2026-04-25T08:19:59.999Z</time></trkpt><trkpt lat="45.3352819137501" lon="9.649055433120894"><ele>76.0</ele><time>2026-04-25T08:20:02.999Z</time></trkpt><trkpt lat="45.33529431393248" lon="9.64914698014776"><ele>76.0</ele><time>2026-04-25T08:20:06Z</time></trkpt><trkpt lat="45.33531452184447" lon="9.649264617732378"><ele>76.0</ele><time>2026-04-25T08:20:09Z</time></trkpt><trkpt lat="45.33532516698548" lon="9.649353424047106"><ele>76.0</ele><time>2026-04-25T08:20:11Z</time></trkpt><trkpt lat="45.33533661392571" lon="9.649465361737306"><ele>76.0</ele><time>2026-04-25T08:20:14Z</time></trkpt><trkpt lat="45.33534888526448" lon="9.649574353779709"><ele>76.16666666666666</ele><time>2026-04-25T08:20:17Z</time></trkpt><trkpt lat="45.33537564408483" lon="9.649685944306038"><ele>76.33333333333333</ele><time>2026-04-25T08:20:20Z</time></trkpt><trkpt lat="45.33539930118818" lon="9.649777509544013"><ele>76.5</ele><time>2026-04-25T08:20:23Z</time></trkpt><trkpt lat="45.33541729783128" lon="9.649885379282216"><ele>76.66666666666667</ele><time>2026-04-25T08:20:26Z</time></trkpt><trkpt lat="45.335441269952305" lon="9.649983749390229"><ele>76.83333333333334</ele><time>2026-04-25T08:20:29Z</time></trkpt><trkpt lat="45.33546426635585" lon="9.650083570946533"><ele>77.0</ele><time>2026-04-25T08:20:32Z</time></trkpt><trkpt lat="45.33546371903634" lon="9.65019232115452"><ele>76.83333333333334</ele><time>2026-04-25T08:20:35Z</time></trkpt><trkpt lat="45.33546041107548" lon="9.650300843982198"><ele>76.66666666666667</ele><time>2026-04-25T08:20:38Z</time></trkpt><trkpt lat="45.335467830932174" lon="9.650422022439098"><ele>76.5</ele><time>2026-04-25T08:20:41Z</time></trkpt><trkpt lat="45.33545367226637" lon="9.650532846853784"><ele>76.33333333333333</ele><time>2026-04-25T08:20:44Z</time></trkpt><trkpt lat="45.33541874991058" lon="9.650622123905048"><ele>76.16666666666666</ele><time>2026-04-25T08:20:47Z</time></trkpt><trkpt lat="45.335348114632524" lon="9.650675278116083"><ele>76.0</ele><time>2026-04-25T08:20:50Z</time></trkpt><trkpt lat="45.33528253981402" lon="9.650698127959426"><ele>76.0</ele><time>2026-04-25T08:20:53.999Z</time></trkpt><trkpt lat="45.33521088550779" lon="9.65071391426936"><ele>76.0</ele><time>2026-04-25T08:20:57.999Z</time></trkpt><trkpt lat="45.335133265567805" lon="9.650746406250944"><ele>76.0</ele><time>2026-04-25T08:21:01.999Z</time></trkpt></trkseg><trkseg><trkpt lat="45.33186002164027" lon="9.660374448771892"><ele>75.0</ele><time>2026-04-25T08:32:56Z</time></trkpt><trkpt lat="45.33186355565147" lon="9.660475645806628"><ele>75.0</ele><time>2026-04-25T08:32:59Z</time></trkpt><trkpt lat="45.33186899756744" lon="9.660590182275376"><ele>75.0</ele><time>2026-04-25T08:33:03Z</time></trkpt><trkpt lat="45.33187311275515" lon="9.660698877683085"><ele>75.0</ele><time>2026-04-25T08:33:06Z</time></trkpt><trkpt lat="45.331877019630056" lon="9.660790921422606"><ele>75.0</ele><time>2026-04-25T08:33:09Z</time></trkpt><trkpt lat="45.3318844279628" lon="9.66093743351655"><ele>75.0</ele><time>2026-04-25T08:33:12Z</time></trkpt><trkpt lat="45.331883324403286" lon="9.661028843970362"><ele>75.16666666666667</ele><time>2026-04-25T08:33:14Z</time></trkpt><trkpt lat="45.331892042676714" lon="9.661145899748302"><ele>75.33333333333333</ele><time>2026-04-25T08:33:17Z</time></trkpt><trkpt lat="45.33188931129367" lon="9.66125544683108"><ele>75.5</ele><time>2026-04-25T08:33:20Z</time></trkpt><trkpt lat="45.331895403346536" lon="9.66137907236808"><ele>75.66666666666666</ele><time>2026-04-25T08:33:23Z</time></trkpt><trkpt lat="45.33190416323723" lon="9.661487821092935"><ele>75.83333333333333</ele><time>2026-04-25T08:33:26Z</time></trkpt><trkpt lat="45.33190967663699" lon="9.661580128679843"><ele>76.0</ele><time>2026-04-25T08:33:28Z</time></trkpt><trkpt lat="45.33190431688921" lon="9.661703005497408"><ele>76.0</ele><time>2026-04-25T08:33:31Z</time></trkpt><trkpt lat="45.33191138945668" lon="9.661816460858292"><ele>76.0</ele><time>2026-04-25T08:33:34Z</time></trkpt><trkpt lat="45.3319311803228" lon="9.661935299185407"><ele>76.0</ele><time>2026-04-25T08:33:37Z</time></trkpt><trkpt lat="45.33193540613428" lon="9.66204865866183"><ele>76.0</ele><time>2026-04-25T08:33:40Z</time></trkpt><trkpt lat="45.33194445097818" lon="9.66216321744337"><ele>76.0</ele><time>2026-04-25T08:33:43Z</time></trkpt><trkpt lat="45.33196281942324" lon="9.662263833213427"><ele>76.0</ele><time>2026-04-25T08:33:46Z</time></trkpt><trkpt lat="45.33195267552009" lon="9.66238350757842"><ele>75.83333333333333</ele><time>2026-04-25T08:33:49Z</time></trkpt><trkpt lat="45.331963368386795" lon="9.66249580924624"><ele>75.66666666666666</ele><time>2026-04-25T08:33:52Z</time></trkpt><trkpt lat="45.33197036921197" lon="9.662618550547863"><ele>75.5</ele><time>2026-04-25T08:33:55Z</time></trkpt><trkpt lat="45.33198184469175" lon="9.662748336431665"><ele>75.33333333333333</ele><time>2026-04-25T08:33:58Z</time></trkpt><trkpt lat="45.33198305766985" lon="9.662858381353965"><ele>75.16666666666667</ele><time>2026-04-25T08:34:01Z</time></trkpt><trkpt lat="45.33198212322729" lon="9.662978141840432"><ele>75.0</ele><time>2026-04-25T08:34:03.999Z</time></trkpt><trkpt lat="45.33198978738565" lon="9.66310270002517"><ele>74.83333333333333</ele><time>2026-04-25T08:34:06.999Z</time></trkpt><trkpt lat="45.33200143115845" lon="9.663215344165858"><ele>74.66666666666667</ele><time>2026-04-25T08:34:09.999Z</time></trkpt><trkpt lat="45.33199724817617" lon="9.663332567144538"><ele>74.5</ele><time>2026-04-25T08:34:12.999Z</time></trkpt><trkpt lat="45.33201297870068" lon="9.663445719363905"><ele>74.33333333333334</ele><time>2026-04-25T08:34:16Z</time></trkpt><trkpt lat="45.33202759178517" lon="9.663567567461085"><ele>74.16666666666667</ele><time>2026-04-25T08:34:19Z</time></trkpt><trkpt lat="45.332021626271576" lon="9.66367761423215"><ele>74.0</ele><time>2026-04-25T08:34:22Z</time></trkpt><trkpt lat="45.33203374337813" lon="9.663797991094523"><ele>74.0</ele><time>2026-04-25T08:34:25Z</time></trkpt><trkpt lat="45.33204235472516" lon="9.663911207974005"><ele>74.0</ele><time>2026-04-25T08:34:28Z</time></trkpt><trkpt lat="45.33203173381943" lon="9.664013958438424"><ele>74.0</ele><time>2026-04-25T08:34:31Z</time></trkpt><trkpt lat="45.332058688617686" lon="9.664096174635707"><ele>74.0</ele><time>2026-04-25T08:34:33Z</time></trkpt><trkpt lat="45.33206243959096" lon="9.664216418519105"><ele>74.0</ele><time>2026-04-25T08:34:36Z</time></trkpt><trkpt lat="45.33206871279225" lon="9.664329528616102"><ele>74.0</ele><time>2026-04-25T08:34:39Z</time></trkpt><trkpt lat="45.33208369742831" lon="9.664430064054592"><ele>74.0</ele><time>2026-04-25T08:34:42Z</time></trkpt><trkpt lat="45.33209764232857" lon="9.664553880197728"><ele>74.0</ele><time>2026-04-25T08:34:45Z</time></trkpt><trkpt lat="45.33207482257917" lon="9.66466450132962"><ele>74.0</ele><time>2026-04-25T08:34:48Z</time></trkpt><trkpt lat="45.332074854328646" lon="9.664788380806076"><ele>74.0</ele><time>2026-04-25T08:34:51Z</time></trkpt><trkpt lat="45.332087902483444" lon="9.664895698823916"><ele>74.0</ele><time>2026-04-25T08:34:54Z</time></trkpt><trkpt lat="45.332086306512274" lon="9.665015081556167"><ele>74.0</ele><time>2026-04-25T08:34:57Z</time></trkpt><trkpt lat="45.33209341017733" lon="9.665121427359104"><ele>74.0</ele><time>2026-04-25T08:35:00Z</time></trkpt><trkpt lat="45.3321024242631" lon="9.665237673048718"><ele>74.0</ele><time>2026-04-25T08:35:03Z</time></trkpt><trkpt lat="45.332097279428524" lon="9.665341216804753"><ele>74.0</ele><time>2026-04-25T08:35:06Z</time></trkpt><trkpt lat="45.332110658601884" lon="9.665453535561475"><ele>74.0</ele><time>2026-04-25T08:35:09Z</time></trkpt><trkpt lat="45.332097957807036" lon="9.665550822062963"><ele>74.0</ele><time>2026-04-25T08:35:11Z</time></trkpt><trkpt lat="45.332116493175654" lon="9.665657838162"><ele>74.0</ele><time>2026-04-25T08:35:14Z</time></trkpt><trkpt lat="45.332129293095136" lon="9.665776387452418"><ele>74.0</ele><time>2026-04-25T08:35:17Z</time></trkpt><trkpt lat="45.33212720602578" lon="9.665898536838235"><ele>74.0</ele><time>2026-04-25T08:35:20Z</time></trkpt><trkpt lat="45.33213316147921" lon="9.666004543854275"><ele>74.0</ele><time>2026-04-25T08:35:23Z</time></trkpt><trkpt lat="45.332133297622256" lon="9.666116018944402"><ele>74.0</ele><time>2026-04-25T08:35:26Z</time></trkpt><trkpt lat="45.332140692088544" lon="9.666218360941073"><ele>74.0</ele><time>2026-04-25T08:35:29Z</time></trkpt><trkpt lat="45.3321432825714" lon="9.666327190755164"><ele>74.0</ele><time>2026-04-25T08:35:32Z</time></trkpt><trkpt lat="45.332154442185974" lon="9.66643621598308"><ele>74.0</ele><time>2026-04-25T08:35:35Z</time></trkpt><trkpt lat="45.33215035051743" lon="9.666549120246422"><ele>74.0</ele><time>2026-04-25T08:35:38Z</time></trkpt><trkpt lat="45.33216692725312" lon="9.666652830011127"><ele>74.0</ele><time>2026-04-25T08:35:41Z</time></trkpt><trkpt lat="45.33217627609803" lon="9.666759543070707"><ele>74.0</ele><time>2026-04-25T08:35:44Z</time></trkpt><trkpt lat="45.332179801577965" lon="9.666876040217614"><ele>74.0</ele><time>2026-04-25T08:35:47Z</time></trkpt><trkpt lat="45.33218491430055" lon="9.666984843389526"><ele>74.0</ele><time>2026-04-25T08:35:49.999Z</time></trkpt><trkpt lat="45.33219206434619" lon="9.667102875727862"><ele>74.16666666666667</ele><time>2026-04-25T08:35:52.999Z</time></trkpt><trkpt lat="45.332192524495106" lon="9.667225059405212"><ele>74.33333333333334</ele><time>2026-04-25T08:35:55.999Z</time></trkpt><trkpt lat="45.332192794635866" lon="9.667338430721767"><ele>74.5</ele><time>2026-04-25T08:35:58.999Z</time></trkpt><trkpt lat="45.33220475916459" lon="9.667432462652075"><ele>74.66666666666667</ele><time>2026-04-25T08:36:01.999Z</time></trkpt><trkpt lat="45.332199111424785" lon="9.667557667767172"><ele>74.83333333333333</ele><time>2026-04-25T08:36:04.999Z</time></trkpt><trkpt lat="45.33221042259179" lon="9.667649982034314"><ele>75.0</ele><time>2026-04-25T08:36:07.999Z</time></trkpt><trkpt lat="45.33222431001935" lon="9.667756646340957"><ele>74.66666666666667</ele><time>2026-04-25T08:36:10.999Z</time></trkpt><trkpt lat="45.33222795456664" lon="9.667859419967206"><ele>74.33333333333333</ele><time>2026-04-25T08:36:13.999Z</time></trkpt><trkpt lat="45.33222557775389" lon="9.667971750069386"><ele>74.0</ele><time>2026-04-25T08:36:16.999Z</time></trkpt><trkpt lat="45.332225384083614" lon="9.668085055420454"><ele>73.66666666666666</ele><time>2026-04-25T08:36:19.999Z</time></trkpt><trkpt lat="45.33223661692168" lon="9.668192698815732"><ele>73.33333333333333</ele><time>2026-04-25T08:36:23Z</time></trkpt><trkpt lat="45.33224887468739" lon="9.668295556221656"><ele>73.0</ele><time>2026-04-25T08:36:26Z</time></trkpt><trkpt lat="45.332253971255824" lon="9.668406154053399"><ele>73.0</ele><time>2026-04-25T08:36:29Z</time></trkpt><trkpt lat="45.33226582692789" lon="9.668514870232254"><ele>73.0</ele><time>2026-04-25T08:36:32Z</time></trkpt><trkpt lat="45.3322672571596" lon="9.668622699857398"><ele>73.0</ele><time>2026-04-25T08:36:35Z</time></trkpt><trkpt lat="45.33227157556125" lon="9.668739180989826"><ele>73.0</ele><time>2026-04-25T08:36:38Z</time></trkpt><trkpt lat="45.332285877476174" lon="9.668865404673902"><ele>73.0</ele><time>2026-04-25T08:36:41Z</time></trkpt><trkpt lat="45.33229197003433" lon="9.668985198321694"><ele>73.0</ele><time>2026-04-25T08:36:45Z</time></trkpt><trkpt lat="45.33229241265272" lon="9.669113935185031"><ele>73.33333333333333</ele><time>2026-04-25T08:36:48Z</time></trkpt><trkpt lat="45.33230786078129" lon="9.66920165233342"><ele>73.66666666666666</ele><time>2026-04-25T08:36:51Z</time></trkpt><trkpt lat="45.33230468157051" lon="9.669311601678888"><ele>74.0</ele><time>2026-04-25T08:36:54Z</time></trkpt><trkpt lat="45.332332097239515" lon="9.669411957290675"><ele>74.33333333333333</ele><time>2026-04-25T08:36:57Z</time></trkpt><trkpt lat="45.332326715252975" lon="9.66952753538289"><ele>74.66666666666667</ele><time>2026-04-25T08:37:00Z</time></trkpt><trkpt lat="45.33232563495331" lon="9.669642222526745"><ele>75.0</ele><time>2026-04-25T08:37:03Z</time></trkpt><trkpt lat="45.33232962830373" lon="9.66975525717644"><ele>75.0</ele><time>2026-04-25T08:37:06Z</time></trkpt><trkpt lat="45.332338265313844" lon="9.669872828676631"><ele>75.0</ele><time>2026-04-25T08:37:09Z</time></trkpt><trkpt lat="45.332340740716226" lon="9.669965650128411"><ele>75.0</ele><time>2026-04-25T08:37:12Z</time></trkpt><trkpt lat="45.332342975377635" lon="9.670082144040716"><ele>75.0</ele><time>2026-04-25T08:37:15Z</time></trkpt><trkpt lat="45.332348183586106" lon="9.670183685841804"><ele>75.0</ele><time>2026-04-25T08:37:18Z</time></trkpt><trkpt lat="45.33235853602034" lon="9.670293043802257"><ele>75.0</ele><time>2026-04-25T08:37:21Z</time></trkpt><trkpt lat="45.33236896916909" lon="9.670407207895567"><ele>75.16666666666667</ele><time>2026-04-25T08:37:24Z</time></trkpt><trkpt lat="45.33236643914095" lon="9.670516971148873"><ele>75.33333333333333</ele><time>2026-04-25T08:37:27Z</time></trkpt><trkpt lat="45.33238948032332" lon="9.670616170828083"><ele>75.5</ele><time>2026-04-25T08:37:30Z</time></trkpt><trkpt lat="45.332386701758125" lon="9.670718166883722"><ele>75.66666666666666</ele><time>2026-04-25T08:37:33Z</time></trkpt><trkpt lat="45.332392654286785" lon="9.670841411216006"><ele>75.83333333333333</ele><time>2026-04-25T08:37:36Z</time></trkpt><trkpt lat="45.33238895515685" lon="9.67093858996797"><ele>76.0</ele><time>2026-04-25T08:37:39Z</time></trkpt><trkpt lat="45.332400651341175" lon="9.67105361713072"><ele>76.0</ele><time>2026-04-25T08:37:42Z</time></trkpt><trkpt lat="45.33240770322106" lon="9.67115564613047"><ele>76.0</ele><time>2026-04-25T08:37:45Z</time></trkpt><trkpt lat="45.332418754948044" lon="9.671244462690847"><ele>76.0</ele><time>2026-04-25T08:37:47Z</time></trkpt><trkpt lat="45.33242512100056" lon="9.671345012038142"><ele>76.0</ele><time>2026-04-25T08:37:50Z</time></trkpt><trkpt lat="45.33243803043946" lon="9.671450483173572"><ele>76.0</ele><time>2026-04-25T08:37:53Z</time></trkpt><trkpt lat="45.33244850407477" lon="9.671547578842846"><ele>76.0</ele><time>2026-04-25T08:37:56Z</time></trkpt><trkpt lat="45.33243203694711" lon="9.671659457323022"><ele>76.0</ele><time>2026-04-25T08:37:59Z</time></trkpt><trkpt lat="45.332446467643614" lon="9.671777371859895"><ele>76.0</ele><time>2026-04-25T08:38:02Z</time></trkpt><trkpt lat="45.33245698955689" lon="9.671885128244021"><ele>76.0</ele><time>2026-04-25T08:38:05Z</time></trkpt><trkpt lat="45.332446658538565" lon="9.671984645799272"><ele>76.0</ele><time>2026-04-25T08:38:08Z</time></trkpt><trkpt lat="45.332413344596745" lon="9.67208749696387"><ele>76.0</ele><time>2026-04-25T08:38:11Z</time></trkpt><trkpt lat="45.33240136454261" lon="9.672190824262556"><ele>76.0</ele><time>2026-04-25T08:38:14Z</time></trkpt><trkpt lat="45.33239877217295" lon="9.672296080109408"><ele>76.0</ele><time>2026-04-25T08:38:17Z</time></trkpt><trkpt lat="45.332388741103095" lon="9.672394524531233"><ele>76.0</ele><time>2026-04-25T08:38:20Z</time></trkpt><trkpt lat="45.332402758903804" lon="9.672503189768877"><ele>76.16666666666666</ele><time>2026-04-25T08:38:23Z</time></trkpt><trkpt lat="45.33241254183505" lon="9.672606784270288"><ele>76.33333333333333</ele><time>2026-04-25T08:38:26Z</time></trkpt><trkpt lat="45.332423712027435" lon="9.67273733492466"><ele>76.5</ele><time>2026-04-25T08:38:29Z</time></trkpt><trkpt lat="45.332404688290076" lon="9.672862437006962"><ele>76.66666666666667</ele><time>2026-04-25T08:38:32Z</time></trkpt><trkpt lat="45.332414386793445" lon="9.672972646660781"><ele>76.83333333333334</ele><time>2026-04-25T08:38:35Z</time></trkpt><trkpt lat="45.33241254660535" lon="9.673084117268024"><ele>77.0</ele><time>2026-04-25T08:38:38Z</time></trkpt><trkpt lat="45.332422026142574" lon="9.673196195659854"><ele>77.0</ele><time>2026-04-25T08:38:41Z</time></trkpt><trkpt lat="45.33243146662318" lon="9.6732989776736"><ele>77.0</ele><time>2026-04-25T08:38:44Z</time></trkpt><trkpt lat="45.332445595474205" lon="9.673404105848004"><ele>77.0</ele><time>2026-04-25T08:38:47Z</time></trkpt><trkpt lat="45.332451603416395" lon="9.673527472528233"><ele>77.0</ele><time>2026-04-25T08:38:50Z</time></trkpt><trkpt lat="45.33243403029792" lon="9.673634753863961"><ele>77.0</ele><time>2026-04-25T08:38:53Z</time></trkpt><trkpt lat="45.33241164561521" lon="9.673753783042446"><ele>77.0</ele><time>2026-04-25T08:38:56Z</time></trkpt><trkpt lat="45.3324261562613" lon="9.67387660860032"><ele>76.66666666666667</ele><time>2026-04-25T08:38:59Z</time></trkpt><trkpt lat="45.332427641078354" lon="9.673994466054157"><ele>76.33333333333334</ele><time>2026-04-25T08:39:02Z</time></trkpt><trkpt lat="45.332441948744545" lon="9.674106373484493"><ele>76.0</ele><time>2026-04-25T08:39:05Z</time></trkpt><trkpt lat="45.33245596402588" lon="9.67421602049892"><ele>75.66666666666667</ele><time>2026-04-25T08:39:08Z</time></trkpt><trkpt lat="45.33246649749554" lon="9.674323859795651"><ele>75.33333333333333</ele><time>2026-04-25T08:39:11Z</time></trkpt><trkpt lat="45.33246567137395" lon="9.67444127387725"><ele>75.0</ele><time>2026-04-25T08:39:14Z</time></trkpt><trkpt lat="45.33247134125488" lon="9.674545718429915"><ele>75.0</ele><time>2026-04-25T08:39:17Z</time></trkpt><trkpt lat="45.33247942657314" lon="9.674660135190056"><ele>75.0</ele><time>2026-04-25T08:39:20Z</time></trkpt><trkpt lat="45.332471747432464" lon="9.674771009373885"><ele>75.0</ele><time>2026-04-25T08:39:23Z</time></trkpt><trkpt lat="45.33245762714668" lon="9.674865064007424"><ele>75.0</ele><time>2026-04-25T08:39:25Z</time></trkpt><trkpt lat="45.33246352226221" lon="9.674974511588681"><ele>75.0</ele><time>2026-04-25T08:39:28Z</time></trkpt><trkpt lat="45.33247534766536" lon="9.675079006601504"><ele>75.0</ele><time>2026-04-25T08:39:31Z</time></trkpt><trkpt lat="45.33247802103314" lon="9.675201600008261"><ele>75.0</ele><time>2026-04-25T08:39:34Z</time></trkpt><trkpt lat="45.33249252083971" lon="9.675311706533574"><ele>75.0</ele><time>2026-04-25T08:39:37Z</time></trkpt><trkpt lat="45.33249970670192" lon="9.67542445533619"><ele>75.0</ele><time>2026-04-25T08:39:40Z</time></trkpt><trkpt lat="45.332516129608834" lon="9.67554088968544"><ele>75.0</ele><time>2026-04-25T08:39:43Z</time></trkpt><trkpt lat="45.3325268793732" lon="9.675645073213472"><ele>75.0</ele><time>2026-04-25T08:39:46Z</time></trkpt><trkpt lat="45.3325232642073" lon="9.675755079309798"><ele>75.0</ele><time>2026-04-25T08:39:49Z</time></trkpt><trkpt lat="45.33253609370559" lon="9.67586651890571"><ele>75.0</ele><time>2026-04-25T08:39:52Z</time></trkpt><trkpt lat="45.33253443688897" lon="9.675982632268903"><ele>75.0</ele><time>2026-04-25T08:39:55Z</time></trkpt><trkpt lat="45.33254705471029" lon="9.676092666405797"><ele>75.0</ele><time>2026-04-25T08:39:58Z</time></trkpt><trkpt lat="45.3325540227957" lon="9.676195138975881"><ele>75.0</ele><time>2026-04-25T08:40:01Z</time></trkpt><trkpt lat="45.33256448726446" lon="9.676306480660893"><ele>75.0</ele><time>2026-04-25T08:40:04Z</time></trkpt><trkpt lat="45.33256717444224" lon="9.67641978127601"><ele>75.0</ele><time>2026-04-25T08:40:07Z</time></trkpt><trkpt lat="45.33255427035863" lon="9.676509815471821"><ele>74.85714285714285</ele><time>2026-04-25T08:40:09Z</time></trkpt><trkpt lat="45.33255799961843" lon="9.67661847843708"><ele>74.71428571428571</ele><time>2026-04-25T08:40:12Z</time></trkpt><trkpt lat="45.332561852931605" lon="9.676716082100242"><ele>74.57142857142857</ele><time>2026-04-25T08:40:15Z</time></trkpt><trkpt lat="45.332568962668994" lon="9.676818402617515"><ele>74.42857142857142</ele><time>2026-04-25T08:40:18Z</time></trkpt><trkpt lat="45.33257037656791" lon="9.676933491915982"><ele>74.28571428571428</ele><time>2026-04-25T08:40:21Z</time></trkpt><trkpt lat="45.33256963743111" lon="9.677043800695493"><ele>74.14285714285714</ele><time>2026-04-25T08:40:24Z</time></trkpt><trkpt lat="45.33258465091775" lon="9.67713793069302"><ele>74.0</ele><time>2026-04-25T08:40:26Z</time></trkpt><trkpt lat="45.3325783907019" lon="9.677241519146392"><ele>74.0</ele><time>2026-04-25T08:40:29Z</time></trkpt><trkpt lat="45.33258846946321" lon="9.677351227218928"><ele>74.0</ele><time>2026-04-25T08:40:32Z</time></trkpt><trkpt lat="45.33259017124914" lon="9.677456447388353"><ele>74.0</ele><time>2026-04-25T08:40:35Z</time></trkpt><trkpt lat="45.33259943927303" lon="9.677557596250935"><ele>74.0</ele><time>2026-04-25T08:40:38Z</time></trkpt><trkpt lat="45.33261334753776" lon="9.677674306057797"><ele>74.0</ele><time>2026-04-25T08:40:41Z</time></trkpt><trkpt lat="45.33261378868957" lon="9.677782099888093"><ele>74.0</ele><time>2026-04-25T08:40:44Z</time></trkpt><trkpt lat="45.33261163654727" lon="9.677910655859453"><ele>73.83333333333334</ele><time>2026-04-25T08:40:47Z</time></trkpt><trkpt lat="45.33262774290091" lon="9.678008375771592"><ele>73.66666666666667</ele><time>2026-04-25T08:40:50Z</time></trkpt><trkpt lat="45.33263212832287" lon="9.678122859997858"><ele>73.5</ele><time>2026-04-25T08:40:53Z</time></trkpt><trkpt lat="45.33263906362695" lon="9.678233860783024"><ele>73.33333333333333</ele><time>2026-04-25T08:40:56Z</time></trkpt><trkpt lat="45.33263994239014" lon="9.678341359232537"><ele>73.16666666666666</ele><time>2026-04-25T08:40:59Z</time></trkpt><trkpt lat="45.33265210775139" lon="9.678448489443623"><ele>73.0</ele><time>2026-04-25T08:41:02Z</time></trkpt><trkpt lat="45.33266279387951" lon="9.678556492789811"><ele>73.0</ele><time>2026-04-25T08:41:05Z</time></trkpt><trkpt lat="45.332661557799526" lon="9.67867122849004"><ele>73.0</ele><time>2026-04-25T08:41:08Z</time></trkpt><trkpt lat="45.33266170539136" lon="9.67878001003297"><ele>73.0</ele><time>2026-04-25T08:41:11Z</time></trkpt><trkpt lat="45.33267145530377" lon="9.678897852498574"><ele>73.0</ele><time>2026-04-25T08:41:14Z</time></trkpt><trkpt lat="45.33267640652471" lon="9.679004600263053"><ele>73.0</ele><time>2026-04-25T08:41:17Z</time></trkpt><trkpt lat="45.33268039077073" lon="9.679114290870343"><ele>73.0</ele><time>2026-04-25T08:41:20Z</time></trkpt><trkpt lat="45.33269121582262" lon="9.679221231787292"><ele>73.0</ele><time>2026-04-25T08:41:23Z</time></trkpt><trkpt lat="45.33270114449024" lon="9.679333129285602"><ele>73.0</ele><time>2026-04-25T08:41:26Z</time></trkpt><trkpt lat="45.33269674899654" lon="9.679451285430897"><ele>73.0</ele><time>2026-04-25T08:41:29Z</time></trkpt><trkpt lat="45.33270821460784" lon="9.67957301800287"><ele>73.0</ele><time>2026-04-25T08:41:32Z</time></trkpt><trkpt lat="45.33271141426798" lon="9.679678770421324"><ele>73.0</ele><time>2026-04-25T08:41:35Z</time></trkpt><trkpt lat="45.33271285786501" lon="9.679783456409377"><ele>73.0</ele><time>2026-04-25T08:41:38Z</time></trkpt><trkpt lat="45.33271897926074" lon="9.679886876588435"><ele>73.16666666666666</ele><time>2026-04-25T08:41:41Z</time></trkpt><trkpt lat="45.332722708106864" lon="9.68000596489371"><ele>73.33333333333333</ele><time>2026-04-25T08:41:44Z</time></trkpt><trkpt lat="45.332725387312365" lon="9.680113376654718"><ele>73.5</ele><time>2026-04-25T08:41:47Z</time></trkpt><trkpt lat="45.332732952959056" lon="9.680226742730671"><ele>73.66666666666667</ele><time>2026-04-25T08:41:50Z</time></trkpt><trkpt lat="45.332741309003644" lon="9.680332202067321"><ele>73.83333333333334</ele><time>2026-04-25T08:41:53Z</time></trkpt><trkpt lat="45.33274076344477" lon="9.680449827623766"><ele>74.0</ele><time>2026-04-25T08:41:56Z</time></trkpt><trkpt lat="45.332754776042265" lon="9.680550918563577"><ele>73.83333333333334</ele><time>2026-04-25T08:41:59Z</time></trkpt><trkpt lat="45.33276443224166" lon="9.680666870796475"><ele>73.66666666666667</ele><time>2026-04-25T08:42:02Z</time></trkpt><trkpt lat="45.33276834225045" lon="9.680793226551016"><ele>73.5</ele><time>2026-04-25T08:42:05Z</time></trkpt><trkpt lat="45.33277998099298" lon="9.68089082807349"><ele>73.33333333333333</ele><time>2026-04-25T08:42:08Z</time></trkpt><trkpt lat="45.33277517743153" lon="9.681003868712013"><ele>73.16666666666666</ele><time>2026-04-25T08:42:11Z</time></trkpt><trkpt lat="45.3327899368733" lon="9.681114985009302"><ele>73.0</ele><time>2026-04-25T08:42:14Z</time></trkpt><trkpt lat="45.332794917266305" lon="9.681235314825894"><ele>73.0</ele><time>2026-04-25T08:42:17Z</time></trkpt><trkpt lat="45.33280680754836" lon="9.681336738646285"><ele>73.0</ele><time>2026-04-25T08:42:20Z</time></trkpt><trkpt lat="45.33280464211348" lon="9.681449830153356"><ele>73.0</ele><time>2026-04-25T08:42:23Z</time></trkpt><trkpt lat="45.33281670231113" lon="9.681561234577297"><ele>73.0</ele><time>2026-04-25T08:42:26Z</time></trkpt><trkpt lat="45.33282359239106" lon="9.681670332255864"><ele>73.0</ele><time>2026-04-25T08:42:29Z</time></trkpt><trkpt lat="45.33282197500644" lon="9.68177333184282"><ele>73.0</ele><time>2026-04-25T08:42:32Z</time></trkpt><trkpt lat="45.33282919385093" lon="9.68186828983318"><ele>73.0</ele><time>2026-04-25T08:42:34Z</time></trkpt><trkpt lat="45.33282872711435" lon="9.681965035805092"><ele>73.16666666666666</ele><time>2026-04-25T08:42:37Z</time></trkpt><trkpt lat="45.33282945680952" lon="9.68206479050871"><ele>73.33333333333333</ele><time>2026-04-25T08:42:40Z</time></trkpt><trkpt lat="45.33283417071242" lon="9.682170524933698"><ele>73.5</ele><time>2026-04-25T08:42:43Z</time></trkpt><trkpt lat="45.332836071234254" lon="9.682293448434114"><ele>73.66666666666667</ele><time>2026-04-25T08:42:46Z</time></trkpt><trkpt lat="45.33283497864499" lon="9.682416971668319"><ele>73.83333333333334</ele><time>2026-04-25T08:42:50Z</time></trkpt><trkpt lat="45.33283973039718" lon="9.682521119214382"><ele>74.0</ele><time>2026-04-25T08:42:53Z</time></trkpt><trkpt lat="45.332851549657946" lon="9.682627009376672"><ele>74.0</ele><time>2026-04-25T08:42:56Z</time></trkpt><trkpt lat="45.33285223351199" lon="9.682747677131468"><ele>74.0</ele><time>2026-04-25T08:42:59Z</time></trkpt><trkpt lat="45.33287262952158" lon="9.682851720111456"><ele>74.0</ele><time>2026-04-25T08:43:02Z</time></trkpt><trkpt lat="45.33287743040349" lon="9.682963891659051"><ele>74.0</ele><time>2026-04-25T08:43:05Z</time></trkpt><trkpt lat="45.33287541893999" lon="9.683068298750756"><ele>74.0</ele><time>2026-04-25T08:43:08Z</time></trkpt><trkpt lat="45.33287710038136" lon="9.683184298514593"><ele>74.0</ele><time>2026-04-25T08:43:11Z</time></trkpt><trkpt lat="45.33288992553638" lon="9.68328086994473"><ele>73.83333333333334</ele><time>2026-04-25T08:43:14Z</time></trkpt><trkpt lat="45.332891490132354" lon="9.683397776117744"><ele>73.66666666666667</ele><time>2026-04-25T08:43:17Z</time></trkpt><trkpt lat="45.33289331925242" lon="9.68351515264854"><ele>73.5</ele><time>2026-04-25T08:43:20Z</time></trkpt><trkpt lat="45.33290942808103" lon="9.683622614575775"><ele>73.33333333333333</ele><time>2026-04-25T08:43:23Z</time></trkpt><trkpt lat="45.332909634287425" lon="9.683737781885691"><ele>73.16666666666666</ele><time>2026-04-25T08:43:26Z</time></trkpt><trkpt lat="45.33291321004398" lon="9.683836724888897"><ele>73.0</ele><time>2026-04-25T08:43:29Z</time></trkpt><trkpt lat="45.3329283857915" lon="9.683954843017863"><ele>73.0</ele><time>2026-04-25T08:43:32Z</time></trkpt><trkpt lat="45.3329272119991" lon="9.684076243078112"><ele>73.0</ele><time>2026-04-25T08:43:35Z</time></trkpt><trkpt lat="45.33293025140894" lon="9.68417913088698"><ele>73.0</ele><time>2026-04-25T08:43:38Z</time></trkpt><trkpt lat="45.332942647537216" lon="9.684288091864968"><ele>73.0</ele><time>2026-04-25T08:43:41Z</time></trkpt><trkpt lat="45.332939245848266" lon="9.684390606176798"><ele>73.0</ele><time>2026-04-25T08:43:44Z</time></trkpt><trkpt lat="45.33295977351013" lon="9.684515491326886"><ele>73.0</ele><time>2026-04-25T08:43:47Z</time></trkpt><trkpt lat="45.33295394156706" lon="9.684616162134812"><ele>73.0</ele><time>2026-04-25T08:43:50Z</time></trkpt><trkpt lat="45.332965158455416" lon="9.68474401944796"><ele>73.0</ele><time>2026-04-25T08:43:53Z</time></trkpt><trkpt lat="45.332968989672246" lon="9.684850241144515"><ele>73.0</ele><time>2026-04-25T08:43:56Z</time></trkpt><trkpt lat="45.33297656616808" lon="9.684968876865414"><ele>73.0</ele><time>2026-04-25T08:43:59Z</time></trkpt><trkpt lat="45.33297690226628" lon="9.685069789998744"><ele>73.0</ele><time>2026-04-25T08:44:02Z</time></trkpt><trkpt lat="45.33299414581525" lon="9.685193246162957"><ele>73.0</ele><time>2026-04-25T08:44:05Z</time></trkpt><trkpt lat="45.33300053255651" lon="9.685300924686828"><ele>73.0</ele><time>2026-04-25T08:44:08Z</time></trkpt><trkpt lat="45.33299888326059" lon="9.685390782029804"><ele>73.0</ele><time>2026-04-25T08:44:11Z</time></trkpt><trkpt lat="45.33300013836318" lon="9.685491256380194"><ele>73.0</ele><time>2026-04-25T08:44:16Z</time></trkpt><trkpt lat="45.33300700849203" lon="9.685588488610673"><ele>73.0</ele><time>2026-04-25T08:44:21Z</time></trkpt><trkpt lat="45.3330237945117" lon="9.685680488345307"><ele>73.0</ele><time>2026-04-25T08:44:26Z</time></trkpt><trkpt lat="45.333015228553826" lon="9.685785961442802"><ele>73.0</ele><time>2026-04-25T08:44:32Z</time></trkpt><trkpt lat="45.333022009435304" lon="9.685890663661324"><ele>73.0</ele><time>2026-04-25T08:44:37Z</time></trkpt><trkpt lat="45.333031232338016" lon="9.685990107416657"><ele>72.85714285714286</ele><time>2026-04-25T08:44:42Z</time></trkpt><trkpt lat="45.333039511454544" lon="9.686096180816563"><ele>72.71428571428572</ele><time>2026-04-25T08:44:47Z</time></trkpt><trkpt lat="45.33304245621756" lon="9.686201021180212"><ele>72.57142857142858</ele><time>2026-04-25T08:44:52Z</time></trkpt><trkpt lat="45.33304556387252" lon="9.686300711947538"><ele>72.42857142857143</ele><time>2026-04-25T08:44:57Z</time></trkpt><trkpt lat="45.333050156253925" lon="9.686401450949038"><ele>72.28571428571429</ele><time>2026-04-25T08:45:02Z</time></trkpt><trkpt lat="45.3330560983901" lon="9.686491562915375"><ele>72.14285714285715</ele><time>2026-04-25T08:45:07Z</time></trkpt><trkpt lat="45.33306985073789" lon="9.686595087514057"><ele>72.0</ele><time>2026-04-25T08:45:12Z</time></trkpt><trkpt lat="45.33307384787612" lon="9.686694463061166"><ele>72.00000000000001</ele><time>2026-04-25T08:45:17Z</time></trkpt><trkpt lat="45.33308032060297" lon="9.686796108085103"><ele>72.0</ele><time>2026-04-25T08:45:22Z</time></trkpt><trkpt lat="45.333078741815065" lon="9.686903755805954"><ele>72.0</ele><time>2026-04-25T08:45:27Z</time></trkpt><trkpt lat="45.33307203980297" lon="9.6869955735166"><ele>72.0</ele><time>2026-04-25T08:45:31Z</time></trkpt><trkpt lat="45.333088193558424" lon="9.68708213718376"><ele>72.0</ele><time>2026-04-25T08:45:35Z</time></trkpt><trkpt lat="45.333098466625415" lon="9.68718065126387"><ele>72.00000000000001</ele><time>2026-04-25T08:45:40Z</time></trkpt><trkpt lat="45.33310553527073" lon="9.687285288610736"><ele>72.0</ele><time>2026-04-25T08:45:45Z</time></trkpt><trkpt lat="45.33310135157127" lon="9.687384399407053"><ele>72.00000000000001</ele><time>2026-04-25T08:45:51Z</time></trkpt><trkpt lat="45.3331072045859" lon="9.687478226066297"><ele>72.0</ele><time>2026-04-25T08:45:57Z</time></trkpt><trkpt lat="45.33313129688719" lon="9.687585879711527"><ele>72.0</ele><time>2026-04-25T08:46:02Z</time></trkpt><trkpt lat="45.33314613219754" lon="9.687684487648522"><ele>72.0</ele><time>2026-04-25T08:46:07Z</time></trkpt><trkpt lat="45.33312962513538" lon="9.687773519076055"><ele>72.0</ele><time>2026-04-25T08:46:11Z</time></trkpt><trkpt lat="45.333127221008844" lon="9.68786889967767"><ele>72.00000000000001</ele><time>2026-04-25T08:46:15Z</time></trkpt><trkpt lat="45.33311692679167" lon="9.687974368479148"><ele>72.0</ele><time>2026-04-25T08:46:20Z</time></trkpt><trkpt lat="45.33312515811428" lon="9.688083144319661"><ele>72.0</ele><time>2026-04-25T08:46:25Z</time></trkpt><trkpt lat="45.333102373674116" lon="9.688178081288155"><ele>72.0</ele><time>2026-04-25T08:46:29Z</time></trkpt><trkpt lat="45.333141688547784" lon="9.688285340588742"><ele>72.0</ele><time>2026-04-25T08:46:32Z</time></trkpt><trkpt lat="45.33314181589981" lon="9.688396902697825"><ele>72.0</ele><time>2026-04-25T08:46:35Z</time></trkpt><trkpt lat="45.33315564685888" lon="9.688501287899447"><ele>72.0</ele><time>2026-04-25T08:46:38Z</time></trkpt><trkpt lat="45.33316151557928" lon="9.688613270085987"><ele>72.0</ele><time>2026-04-25T08:46:41Z</time></trkpt><trkpt lat="45.333166566019315" lon="9.688713860234062"><ele>72.33333333333333</ele><time>2026-04-25T08:46:43Z</time></trkpt><trkpt lat="45.33317911552945" lon="9.68883805661816"><ele>72.66666666666667</ele><time>2026-04-25T08:46:46Z</time></trkpt><trkpt lat="45.3331758108591" lon="9.688969130296574"><ele>73.0</ele><time>2026-04-25T08:46:49Z</time></trkpt><trkpt lat="45.33317998394415" lon="9.689060442697041"><ele>73.33333333333334</ele><time>2026-04-25T08:46:51Z</time></trkpt><trkpt lat="45.333194662314654" lon="9.689176905442043"><ele>73.66666666666667</ele><time>2026-04-25T08:46:54Z</time></trkpt><trkpt lat="45.333210937479414" lon="9.689294083699812"><ele>74.0</ele><time>2026-04-25T08:46:57Z</time></trkpt><trkpt lat="45.33320963848788" lon="9.689411122517598"><ele>74.14285714285714</ele><time>2026-04-25T08:47:00Z</time></trkpt><trkpt lat="45.33322408115771" lon="9.689535216571931"><ele>74.28571428571428</ele><time>2026-04-25T08:47:03Z</time></trkpt><trkpt lat="45.333233579392314" lon="9.689648679035074"><ele>74.42857142857142</ele><time>2026-04-25T08:47:06Z</time></trkpt><trkpt lat="45.33322522456097" lon="9.689739130159596"><ele>74.57142857142857</ele><time>2026-04-25T08:47:08Z</time></trkpt><trkpt lat="45.333222852108655" lon="9.689849551974566"><ele>74.71428571428571</ele><time>2026-04-25T08:47:11Z</time></trkpt><trkpt lat="45.33316729593793" lon="9.689918976642726"><ele>74.85714285714285</ele><time>2026-04-25T08:47:14Z</time></trkpt><trkpt lat="45.33310392937651" lon="9.689926022250537"><ele>75.0</ele><time>2026-04-25T08:47:16Z</time></trkpt><trkpt lat="45.33302370376987" lon="9.689935855600844"><ele>75.16666666666667</ele><time>2026-04-25T08:47:19Z</time></trkpt><trkpt lat="45.3329506459874" lon="9.68996146231012"><ele>75.33333333333333</ele><time>2026-04-25T08:47:22Z</time></trkpt><trkpt lat="45.332867314558044" lon="9.689977164999616"><ele>75.5</ele><time>2026-04-25T08:47:25Z</time></trkpt><trkpt lat="45.33278962704892" lon="9.689996267929311"><ele>75.66666666666666</ele><time>2026-04-25T08:47:28Z</time></trkpt><trkpt lat="45.33271427571693" lon="9.690009089721046"><ele>75.83333333333333</ele><time>2026-04-25T08:47:31Z</time></trkpt><trkpt lat="45.33264310814166" lon="9.690036419100018"><ele>76.0</ele><time>2026-04-25T08:47:34Z</time></trkpt><trkpt lat="45.33256354814171" lon="9.690056778572652"><ele>76.0</ele><time>2026-04-25T08:47:37Z</time></trkpt><trkpt lat="45.33247841126886" lon="9.690072890837724"><ele>76.0</ele><time>2026-04-25T08:47:40Z</time></trkpt><trkpt lat="45.33241139431191" lon="9.690101858226502"><ele>76.0</ele><time>2026-04-25T08:47:43Z</time></trkpt><trkpt lat="45.33233243371977" lon="9.690106477363416"><ele>76.0</ele><time>2026-04-25T08:47:46Z</time></trkpt><trkpt lat="45.33224641870924" lon="9.69013490917412"><ele>76.0</ele><time>2026-04-25T08:47:49Z</time></trkpt><trkpt lat="45.33216361656661" lon="9.69016055794846"><ele>76.0</ele><time>2026-04-25T08:47:52Z</time></trkpt><trkpt lat="45.33207426059026" lon="9.690185030096876"><ele>75.57142857142857</ele><time>2026-04-25T08:47:55Z</time></trkpt><trkpt lat="45.331999394445674" lon="9.690189762377749"><ele>75.14285714285715</ele><time>2026-04-25T08:47:58Z</time></trkpt><trkpt lat="45.331942770401184" lon="9.690229587565083"><ele>74.71428571428572</ele><time>2026-04-25T08:48:03Z</time></trkpt><trkpt lat="45.331863287862795" lon="9.690229701625157"><ele>74.28571428571428</ele><time>2026-04-25T08:48:08Z</time></trkpt><trkpt lat="45.33179509554837" lon="9.69026253947531"><ele>73.85714285714286</ele><time>2026-04-25T08:48:12Z</time></trkpt><trkpt lat="45.33172803375886" lon="9.690261785652202"><ele>73.42857142857143</ele><time>2026-04-25T08:48:17Z</time></trkpt><trkpt lat="45.33165618767429" lon="9.690302597687332"><ele>73.0</ele><time>2026-04-25T08:48:22Z</time></trkpt><trkpt lat="45.33158922353312" lon="9.690342741968143"><ele>73.0</ele><time>2026-04-25T08:48:26Z</time></trkpt><trkpt lat="45.33151742945745" lon="9.690382258392923"><ele>73.0</ele><time>2026-04-25T08:48:31Z</time></trkpt><trkpt lat="45.33145054001601" lon="9.690389599814457"><ele>73.0</ele><time>2026-04-25T08:48:35Z</time></trkpt><trkpt lat="45.33138773524515" lon="9.69041014851677"><ele>73.0</ele><time>2026-04-25T08:48:39Z</time></trkpt><trkpt lat="45.33131880865685" lon="9.69043357235755"><ele>73.0</ele><time>2026-04-25T08:48:44Z</time></trkpt><trkpt lat="45.331245460477426" lon="9.690431460352828"><ele>73.0</ele><time>2026-04-25T08:48:50Z</time></trkpt><trkpt lat="45.33117446077665" lon="9.690444902569647"><ele>73.0</ele><time>2026-04-25T08:48:55Z</time></trkpt><trkpt lat="45.331099641893545" lon="9.690450086856618"><ele>72.85714285714286</ele><time>2026-04-25T08:49:00Z</time></trkpt><trkpt lat="45.331032127225484" lon="9.690475083652395"><ele>72.71428571428572</ele><time>2026-04-25T08:49:05Z</time></trkpt><trkpt lat="45.3309623552535" lon="9.69050684633316"><ele>72.57142857142858</ele><time>2026-04-25T08:49:10Z</time></trkpt><trkpt lat="45.33089887631938" lon="9.69051623583324"><ele>72.42857142857143</ele><time>2026-04-25T08:49:14Z</time></trkpt><trkpt lat="45.330823939103205" lon="9.690524469336323"><ele>72.28571428571429</ele><time>2026-04-25T08:49:19Z</time></trkpt><trkpt lat="45.33074888513085" lon="9.690536360666911"><ele>72.14285714285715</ele><time>2026-04-25T08:49:24Z</time></trkpt><trkpt lat="45.330675050336204" lon="9.69055675074249"><ele>72.0</ele><time>2026-04-25T08:49:29Z</time></trkpt><trkpt lat="45.3305947277186" lon="9.690577776624623"><ele>72.14285714285715</ele><time>2026-04-25T08:49:34Z</time></trkpt><trkpt lat="45.330523056341875" lon="9.690595334770961"><ele>72.28571428571429</ele><time>2026-04-25T08:49:39Z</time></trkpt><trkpt lat="45.33045324508784" lon="9.69060585258324"><ele>72.42857142857143</ele><time>2026-04-25T08:49:44Z</time></trkpt><trkpt lat="45.33038840588687" lon="9.69062186344166"><ele>72.57142857142858</ele><time>2026-04-25T08:49:48Z</time></trkpt><trkpt lat="45.33032483632677" lon="9.69063936255507"><ele>72.71428571428572</ele><time>2026-04-25T08:49:52Z</time></trkpt><trkpt lat="45.330263206462774" lon="9.69065782985556"><ele>72.85714285714286</ele><time>2026-04-25T08:49:56Z</time></trkpt><trkpt lat="45.33018775365337" lon="9.690676312491963"><ele>73.0</ele><time>2026-04-25T08:50:01Z</time></trkpt><trkpt lat="45.33012558923332" lon="9.69069118033765"><ele>73.0</ele><time>2026-04-25T08:50:05Z</time></trkpt><trkpt lat="45.33004818116707" lon="9.69070942146411"><ele>73.0</ele><time>2026-04-25T08:50:10Z</time></trkpt><trkpt lat="45.32997373906283" lon="9.690727759000225"><ele>73.0</ele><time>2026-04-25T08:50:15Z</time></trkpt><trkpt lat="45.32994994244048" lon="9.690624196918417"><ele>73.0</ele><time>2026-04-25T08:50:20Z</time></trkpt><trkpt lat="45.329947845970686" lon="9.690534137580018"><ele>73.0</ele><time>2026-04-25T08:50:24Z</time></trkpt><trkpt lat="45.32993149306195" lon="9.690446596532789"><ele>73.0</ele><time>2026-04-25T08:50:28Z</time></trkpt><trkpt lat="45.329927218052845" lon="9.6903402091557"><ele>73.0</ele><time>2026-04-25T08:50:33Z</time></trkpt><trkpt lat="45.329908630500704" lon="9.6902323829534"><ele>72.71428571428571</ele><time>2026-04-25T08:50:38Z</time></trkpt><trkpt lat="45.329878757537195" lon="9.69013194922776"><ele>72.42857142857143</ele><time>2026-04-25T08:50:43Z</time></trkpt><trkpt lat="45.32986031195757" lon="9.69004304074637"><ele>72.14285714285714</ele><time>2026-04-25T08:50:47Z</time></trkpt><trkpt lat="45.32984638708862" lon="9.689954960313589"><ele>71.85714285714286</ele><time>2026-04-25T08:50:51Z</time></trkpt><trkpt lat="45.329819509294246" lon="9.689849910152684"><ele>71.57142857142857</ele><time>2026-04-25T08:50:56Z</time></trkpt><trkpt lat="45.329796306829486" lon="9.689761357964073"><ele>71.28571428571428</ele><time>2026-04-25T08:51:00Z</time></trkpt><trkpt lat="45.32976961644829" lon="9.689668504685564"><ele>71.0</ele><time>2026-04-25T08:51:04Z</time></trkpt><trkpt lat="45.32975231569784" lon="9.68956207363726"><ele>71.0</ele><time>2026-04-25T08:51:09Z</time></trkpt><trkpt lat="45.32973030168341" lon="9.689461502147582"><ele>71.0</ele><time>2026-04-25T08:51:14Z</time></trkpt><trkpt lat="45.329710282450066" lon="9.689360691837493"><ele>71.0</ele><time>2026-04-25T08:51:19Z</time></trkpt><trkpt lat="45.32969678179655" lon="9.689251278800452"><ele>71.0</ele><time>2026-04-25T08:51:24Z</time></trkpt><trkpt lat="45.32968098009771" lon="9.689162407000085"><ele>71.0</ele><time>2026-04-25T08:51:29Z</time></trkpt><trkpt lat="45.3296595971911" lon="9.689061187605937"><ele>71.0</ele><time>2026-04-25T08:51:34Z</time></trkpt><trkpt lat="45.32961546391817" lon="9.688975941241448"><ele>71.0</ele><time>2026-04-25T08:51:39Z</time></trkpt><trkpt lat="45.3295512611001" lon="9.688912702190764"><ele>71.28571428571428</ele><time>2026-04-25T08:51:44Z</time></trkpt><trkpt lat="45.32948999065168" lon="9.68888381270276"><ele>71.57142857142857</ele><time>2026-04-25T08:51:48Z</time></trkpt><trkpt lat="45.32943606965181" lon="9.688826209742668"><ele>71.85714285714286</ele><time>2026-04-25T08:51:53Z</time></trkpt><trkpt lat="45.32938878092224" lon="9.688748060936902"><ele>72.14285714285714</ele><time>2026-04-25T08:51:58Z</time></trkpt><trkpt lat="45.32935685951778" lon="9.688654235786842"><ele>72.42857142857143</ele><time>2026-04-25T08:52:03Z</time></trkpt><trkpt lat="45.32933321568343" lon="9.688568679017001"><ele>72.71428571428571</ele><time>2026-04-25T08:52:07Z</time></trkpt><trkpt lat="45.32932756306245" lon="9.688469046356124"><ele>73.0</ele><time>2026-04-25T08:52:12Z</time></trkpt><trkpt lat="45.329318578641775" lon="9.688373173220397"><ele>73.0</ele><time>2026-04-25T08:52:17Z</time></trkpt><trkpt lat="45.32930975947496" lon="9.688267993569239"><ele>73.0</ele><time>2026-04-25T08:52:22Z</time></trkpt><trkpt lat="45.3292952264683" lon="9.688177176638918"><ele>73.0</ele><time>2026-04-25T08:52:27Z</time></trkpt><trkpt lat="45.32928355091893" lon="9.688074484033121"><ele>73.0</ele><time>2026-04-25T08:52:32Z</time></trkpt><trkpt lat="45.32927315402106" lon="9.687972574242115"><ele>73.0</ele><time>2026-04-25T08:52:37Z</time></trkpt><trkpt lat="45.32926441687432" lon="9.687873736455739"><ele>73.0</ele><time>2026-04-25T08:52:42Z</time></trkpt><trkpt lat="45.32926771338867" lon="9.687772237023967"><ele>73.0</ele><time>2026-04-25T08:52:47Z</time></trkpt><trkpt lat="45.329262657731306" lon="9.687668823639315"><ele>73.0</ele><time>2026-04-25T08:52:52Z</time></trkpt><trkpt lat="45.32925702858703" lon="9.687559371521328"><ele>73.0</ele><time>2026-04-25T08:52:57Z</time></trkpt><trkpt lat="45.32925834132776" lon="9.687449879904243"><ele>73.0</ele><time>2026-04-25T08:53:02Z</time></trkpt><trkpt lat="45.32925631909951" lon="9.687357442167224"><ele>73.0</ele><time>2026-04-25T08:53:06Z</time></trkpt><trkpt lat="45.32924819120918" lon="9.687267690543093"><ele>73.0</ele><time>2026-04-25T08:53:10Z</time></trkpt><trkpt lat="45.329243409321826" lon="9.687165309989702"><ele>73.0</ele><time>2026-04-25T08:53:15Z</time></trkpt><trkpt lat="45.32923616529694" lon="9.687068778730914"><ele>73.0</ele><time>2026-04-25T08:53:19Z</time></trkpt><trkpt lat="45.329231457550925" lon="9.686960670113134"><ele>73.0</ele><time>2026-04-25T08:53:23Z</time></trkpt><trkpt lat="45.3292230244732" lon="9.686850363094994"><ele>73.0</ele><time>2026-04-25T08:53:26Z</time></trkpt><trkpt lat="45.329213912323006" lon="9.686734734730873"><ele>73.0</ele><time>2026-04-25T08:53:29Z</time></trkpt><trkpt lat="45.32919936027239" lon="9.686625002350002"><ele>73.0</ele><time>2026-04-25T08:53:32Z</time></trkpt><trkpt lat="45.32918052883008" lon="9.686530627932616"><ele>73.0</ele><time>2026-04-25T08:53:34Z</time></trkpt><trkpt lat="45.32916646157756" lon="9.686397231555382"><ele>73.0</ele><time>2026-04-25T08:53:37Z</time></trkpt><trkpt lat="45.32914670603103" lon="9.686274445779011"><ele>73.0</ele><time>2026-04-25T08:53:40Z</time></trkpt><trkpt lat="45.329142624739944" lon="9.686154042111639"><ele>73.0</ele><time>2026-04-25T08:53:43Z</time></trkpt><trkpt lat="45.32913567041573" lon="9.686036401649028"><ele>73.0</ele><time>2026-04-25T08:53:46Z</time></trkpt><trkpt lat="45.32913596667736" lon="9.685914656208071"><ele>73.0</ele><time>2026-04-25T08:53:49Z</time></trkpt><trkpt lat="45.329150532670496" lon="9.685808002964508"><ele>73.0</ele><time>2026-04-25T08:53:52Z</time></trkpt><trkpt lat="45.329191443930064" lon="9.685705778307655"><ele>73.0</ele><time>2026-04-25T08:53:55Z</time></trkpt><trkpt lat="45.3292256382989" lon="9.685607727762466"><ele>73.0</ele><time>2026-04-25T08:53:58Z</time></trkpt><trkpt lat="45.32924382451428" lon="9.685499378978477"><ele>73.0</ele><time>2026-04-25T08:54:01Z</time></trkpt><trkpt lat="45.32924023251715" lon="9.685376650080537"><ele>73.0</ele><time>2026-04-25T08:54:04Z</time></trkpt><trkpt lat="45.329223388239214" lon="9.685284503261702"><ele>73.0</ele><time>2026-04-25T08:54:07Z</time></trkpt><trkpt lat="45.329213255849446" lon="9.685189868897622"><ele>73.0</ele><time>2026-04-25T08:54:09Z</time></trkpt><trkpt lat="45.32918981637645" lon="9.685087226815252"><ele>73.0</ele><time>2026-04-25T08:54:12Z</time></trkpt><trkpt lat="45.32919058090445" lon="9.684974017777725"><ele>73.0</ele><time>2026-04-25T08:54:15Z</time></trkpt><trkpt lat="45.32918046895848" lon="9.684871441204823"><ele>73.0</ele><time>2026-04-25T08:54:17Z</time></trkpt><trkpt lat="45.329155251482575" lon="9.684787137235274"><ele>73.0</ele><time>2026-04-25T08:54:20Z</time></trkpt><trkpt lat="45.329131578582974" lon="9.684679365085172"><ele>73.0</ele><time>2026-04-25T08:54:23Z</time></trkpt><trkpt lat="45.32911501687356" lon="9.684577768669678"><ele>73.0</ele><time>2026-04-25T08:54:26Z</time></trkpt><trkpt lat="45.329103053991794" lon="9.684489698075966"><ele>73.0</ele><time>2026-04-25T08:54:28Z</time></trkpt><trkpt lat="45.32908702492837" lon="9.684369091996906"><ele>73.0</ele><time>2026-04-25T08:54:31Z</time></trkpt><trkpt lat="45.329066229203406" lon="9.684272078417159"><ele>72.83333333333333</ele><time>2026-04-25T08:54:34Z</time></trkpt><trkpt lat="45.32905310257574" lon="9.684144517717215"><ele>72.66666666666666</ele><time>2026-04-25T08:54:37Z</time></trkpt><trkpt lat="45.32904292731438" lon="9.684040727044223"><ele>72.5</ele><time>2026-04-25T08:54:40Z</time></trkpt><trkpt lat="45.32900554520125" lon="9.683915978855067"><ele>72.33333333333333</ele><time>2026-04-25T08:54:43Z</time></trkpt><trkpt lat="45.329004312302324" lon="9.68381773337149"><ele>72.16666666666667</ele><time>2026-04-25T08:54:46Z</time></trkpt><trkpt lat="45.32898471276818" lon="9.68372305251274"><ele>72.0</ele><time>2026-04-25T08:54:49Z</time></trkpt><trkpt lat="45.328964792492904" lon="9.683622761035503"><ele>72.16666666666667</ele><time>2026-04-25T08:54:52Z</time></trkpt><trkpt lat="45.32894878457329" lon="9.683520746601667"><ele>72.33333333333333</ele><time>2026-04-25T08:54:55Z</time></trkpt><trkpt lat="45.328922059039805" lon="9.683409702730954"><ele>72.5</ele><time>2026-04-25T08:54:58Z</time></trkpt><trkpt lat="45.328903928030925" lon="9.68330038007519"><ele>72.66666666666666</ele><time>2026-04-25T08:55:01Z</time></trkpt><trkpt lat="45.328917664555824" lon="9.683201494043706"><ele>72.83333333333333</ele><time>2026-04-25T08:55:04Z</time></trkpt><trkpt lat="45.329000737295445" lon="9.683167004587554"><ele>73.0</ele><time>2026-04-25T08:55:07Z</time></trkpt><trkpt lat="45.32906787741036" lon="9.683150699645596"><ele>73.0</ele><time>2026-04-25T08:55:10Z</time></trkpt><trkpt lat="45.3291461218587" lon="9.683120300281944"><ele>73.0</ele><time>2026-04-25T08:55:13Z</time></trkpt><trkpt lat="45.32923129667022" lon="9.68310669706077"><ele>73.0</ele><time>2026-04-25T08:55:16.001Z</time></trkpt><trkpt lat="45.32930295423362" lon="9.683073100003147"><ele>73.0</ele><time>2026-04-25T08:55:19.001Z</time></trkpt><trkpt lat="45.32938707579467" lon="9.6830522418132"><ele>73.0</ele><time>2026-04-25T08:55:22.001Z</time></trkpt><trkpt lat="45.329460146070396" lon="9.683022559893127"><ele>73.0</ele><time>2026-04-25T08:55:25.001Z</time></trkpt><trkpt lat="45.32954603015072" lon="9.682998110365629"><ele>73.0</ele><time>2026-04-25T08:55:28.001Z</time></trkpt><trkpt lat="45.329623280483865" lon="9.682977326789567"><ele>73.0</ele><time>2026-04-25T08:55:31.001Z</time></trkpt><trkpt lat="45.32970697697502" lon="9.682963160420659"><ele>73.0</ele><time>2026-04-25T08:55:34Z</time></trkpt><trkpt lat="45.329779964640416" lon="9.682933906636146"><ele>73.0</ele><time>2026-04-25T08:55:37Z</time></trkpt><trkpt lat="45.329854801428695" lon="9.682924572619"><ele>73.0</ele><time>2026-04-25T08:55:40Z</time></trkpt><trkpt lat="45.32991656818668" lon="9.682895196620478"><ele>73.0</ele><time>2026-04-25T08:55:43Z</time></trkpt><trkpt lat="45.32997950057564" lon="9.682865317311808"><ele>73.0</ele><time>2026-04-25T08:55:47Z</time></trkpt><trkpt lat="45.33004827747431" lon="9.68284823532574"><ele>73.0</ele><time>2026-04-25T08:55:52Z</time></trkpt><trkpt lat="45.330124802482416" lon="9.682834424332192"><ele>73.0</ele><time>2026-04-25T08:55:58Z</time></trkpt><trkpt lat="45.33019329262986" lon="9.682819076562204"><ele>73.0</ele><time>2026-04-25T08:56:02Z</time></trkpt><trkpt lat="45.330256850790214" lon="9.682792844285688"><ele>73.0</ele><time>2026-04-25T08:56:06Z</time></trkpt><trkpt lat="45.330334154250345" lon="9.682782205893476"><ele>73.0</ele><time>2026-04-25T08:56:11Z</time></trkpt><trkpt lat="45.330405573008356" lon="9.682785486726655"><ele>73.0</ele><time>2026-04-25T08:56:16Z</time></trkpt><trkpt lat="45.330479755641655" lon="9.68276189254414"><ele>73.0</ele><time>2026-04-25T08:56:21Z</time></trkpt><trkpt lat="45.33055313974109" lon="9.682737338920719"><ele>73.14285714285714</ele><time>2026-04-25T08:56:25Z</time></trkpt><trkpt lat="45.330622660271494" lon="9.68273038321747"><ele>73.28571428571429</ele><time>2026-04-25T08:56:30Z</time></trkpt><trkpt lat="45.33069636978643" lon="9.682746694035398"><ele>73.42857142857143</ele><time>2026-04-25T08:56:35Z</time></trkpt><trkpt lat="45.33076072594733" lon="9.682740900935608"><ele>73.57142857142857</ele><time>2026-04-25T08:56:39Z</time></trkpt><trkpt lat="45.33083136589719" lon="9.682743613613857"><ele>73.71428571428571</ele><time>2026-04-25T08:56:44Z</time></trkpt><trkpt lat="45.3309054174456" lon="9.682726369036942"><ele>73.85714285714286</ele><time>2026-04-25T08:56:49Z</time></trkpt><trkpt lat="45.330975482459884" lon="9.682735624521165"><ele>74.0</ele><time>2026-04-25T08:56:54Z</time></trkpt><trkpt lat="45.33104161049677" lon="9.682734597537891"><ele>74.0</ele><time>2026-04-25T08:56:59Z</time></trkpt><trkpt lat="45.33110998057046" lon="9.682740324615771"><ele>74.0</ele><time>2026-04-25T08:57:04Z</time></trkpt><trkpt lat="45.33117981097324" lon="9.682746238475074"><ele>74.0</ele><time>2026-04-25T08:57:08Z</time></trkpt><trkpt lat="45.331250623598976" lon="9.682726262945886"><ele>74.0</ele><time>2026-04-25T08:57:13Z</time></trkpt><trkpt lat="45.33132281741596" lon="9.682751496469688"><ele>74.0</ele><time>2026-04-25T08:57:19Z</time></trkpt><trkpt lat="45.331398299065064" lon="9.682741177998752"><ele>74.0</ele><time>2026-04-25T08:57:24.001Z</time></trkpt><trkpt lat="45.33146153852238" lon="9.682719083450108"><ele>74.0</ele><time>2026-04-25T08:57:28.001Z</time></trkpt><trkpt lat="45.33153558919419" lon="9.68271214102484"><ele>73.85714285714286</ele><time>2026-04-25T08:57:33.001Z</time></trkpt><trkpt lat="45.331608019502305" lon="9.682698434727985"><ele>73.71428571428571</ele><time>2026-04-25T08:57:38Z</time></trkpt><trkpt lat="45.33168138788022" lon="9.682694383507847"><ele>73.57142857142857</ele><time>2026-04-25T08:57:43Z</time></trkpt><trkpt lat="45.33175915932992" lon="9.68270040267408"><ele>73.42857142857143</ele><time>2026-04-25T08:57:48Z</time></trkpt><trkpt lat="45.331828255815886" lon="9.682728347260383"><ele>73.28571428571429</ele><time>2026-04-25T08:57:52Z</time></trkpt><trkpt lat="45.33189905106101" lon="9.682743324538196"><ele>73.14285714285714</ele><time>2026-04-25T08:57:55Z</time></trkpt><trkpt lat="45.331978064336745" lon="9.682760771859927"><ele>73.0</ele><time>2026-04-25T08:57:58Z</time></trkpt><trkpt lat="45.33206055059227" lon="9.682776338657417"><ele>73.0</ele><time>2026-04-25T08:58:01Z</time></trkpt><trkpt lat="45.33213043012947" lon="9.682790927892686"><ele>73.0</ele><time>2026-04-25T08:58:03Z</time></trkpt><trkpt lat="45.33220740798847" lon="9.68279586836036"><ele>73.0</ele><time>2026-04-25T08:58:05Z</time></trkpt><trkpt lat="45.332287382229346" lon="9.68280896803924"><ele>73.0</ele><time>2026-04-25T08:58:08Z</time></trkpt><trkpt lat="45.332375866406565" lon="9.682830046531432"><ele>73.0</ele><time>2026-04-25T08:58:11Z</time></trkpt><trkpt lat="45.332453274926245" lon="9.682829218912767"><ele>73.0</ele><time>2026-04-25T08:58:14Z</time></trkpt><trkpt lat="45.33253277362378" lon="9.682872313750112"><ele>73.0</ele><time>2026-04-25T08:58:17Z</time></trkpt><trkpt lat="45.33259592233032" lon="9.68289186169472"><ele>73.0</ele><time>2026-04-25T08:58:19Z</time></trkpt><trkpt lat="45.33267725643624" lon="9.682911203369327"><ele>73.0</ele><time>2026-04-25T08:58:22Z</time></trkpt><trkpt lat="45.33274151973166" lon="9.682951550197876"><ele>73.0</ele><time>2026-04-25T08:58:25Z</time></trkpt><trkpt lat="45.332815037533706" lon="9.683005291145282"><ele>73.0</ele><time>2026-04-25T08:58:28Z</time></trkpt><trkpt lat="45.332865927781455" lon="9.683081559402174"><ele>73.0</ele><time>2026-04-25T08:58:31Z</time></trkpt><trkpt lat="45.33287296812501" lon="9.683200534465994"><ele>73.0</ele><time>2026-04-25T08:58:34Z</time></trkpt><trkpt lat="45.33287308522095" lon="9.683316637579955"><ele>73.0</ele><time>2026-04-25T08:58:37Z</time></trkpt><trkpt lat="45.332878204846125" lon="9.683431730808593"><ele>73.0</ele><time>2026-04-25T08:58:40Z</time></trkpt><trkpt lat="45.33289043180697" lon="9.68354432956713"><ele>73.0</ele><time>2026-04-25T08:58:43Z</time></trkpt><trkpt lat="45.332893475233085" lon="9.683667209495699"><ele>73.0</ele><time>2026-04-25T08:58:46Z</time></trkpt><trkpt lat="45.33289926818076" lon="9.683774833430586"><ele>73.0</ele><time>2026-04-25T08:58:49Z</time></trkpt><trkpt lat="45.3328973811322" lon="9.683882355002911"><ele>73.0</ele><time>2026-04-25T08:58:52Z</time></trkpt><trkpt lat="45.33291504693723" lon="9.683996135260646"><ele>73.0</ele><time>2026-04-25T08:58:55Z</time></trkpt><trkpt lat="45.33292070970036" lon="9.68412367123532"><ele>73.0</ele><time>2026-04-25T08:58:58Z</time></trkpt><trkpt lat="45.33291529593878" lon="9.68425161422309"><ele>73.0</ele><time>2026-04-25T08:59:01Z</time></trkpt><trkpt lat="45.332922914340266" lon="9.684370216199232"><ele>73.0</ele><time>2026-04-25T08:59:04Z</time></trkpt><trkpt lat="45.33294367542109" lon="9.684475508395051"><ele>73.0</ele><time>2026-04-25T08:59:07Z</time></trkpt><trkpt lat="45.33294249928628" lon="9.684590303725509"><ele>73.0</ele><time>2026-04-25T08:59:10Z</time></trkpt><trkpt lat="45.3329498923449" lon="9.68469450940979"><ele>73.0</ele><time>2026-04-25T08:59:13Z</time></trkpt><trkpt lat="45.332952549908114" lon="9.684802820258584"><ele>73.0</ele><time>2026-04-25T08:59:16Z</time></trkpt><trkpt lat="45.33295515775642" lon="9.684901452117032"><ele>73.0</ele><time>2026-04-25T08:59:18Z</time></trkpt><trkpt lat="45.33296922219066" lon="9.685002167338693"><ele>73.0</ele><time>2026-04-25T08:59:21Z</time></trkpt><trkpt lat="45.33298029067871" lon="9.685116144162626"><ele>73.0</ele><time>2026-04-25T08:59:24Z</time></trkpt><trkpt lat="45.33298099584189" lon="9.685235262354583"><ele>73.0</ele><time>2026-04-25T08:59:27Z</time></trkpt><trkpt lat="45.332983325328904" lon="9.685356850771232"><ele>73.0</ele><time>2026-04-25T08:59:30Z</time></trkpt><trkpt lat="45.33300092455277" lon="9.685469502400522"><ele>73.0</ele><time>2026-04-25T08:59:33Z</time></trkpt><trkpt lat="45.332983185183906" lon="9.685588273619105"><ele>73.0</ele><time>2026-04-25T08:59:36Z</time></trkpt><trkpt lat="45.33301052337611" lon="9.685707433773455"><ele>73.0</ele><time>2026-04-25T08:59:39Z</time></trkpt><trkpt lat="45.33302120873948" lon="9.68582530577978"><ele>73.0</ele><time>2026-04-25T08:59:42Z</time></trkpt><trkpt lat="45.333017455080075" lon="9.68594504578013"><ele>73.0</ele><time>2026-04-25T08:59:45Z</time></trkpt><trkpt lat="45.33302065638039" lon="9.68604499862681"><ele>73.0</ele><time>2026-04-25T08:59:47Z</time></trkpt><trkpt lat="45.33302521891095" lon="9.686143819553784"><ele>73.0</ele><time>2026-04-25T08:59:50Z</time></trkpt><trkpt lat="45.333023207660595" lon="9.68625497929553"><ele>73.0</ele><time>2026-04-25T08:59:53Z</time></trkpt><trkpt lat="45.33303254485343" lon="9.68637261587458"><ele>73.0</ele><time>2026-04-25T08:59:56Z</time></trkpt><trkpt lat="45.33304418452301" lon="9.686463923444675"><ele>73.0</ele><time>2026-04-25T08:59:58Z</time></trkpt><trkpt lat="45.333040597535266" lon="9.686576508068791"><ele>73.0</ele><time>2026-04-25T09:00:01Z</time></trkpt><trkpt lat="45.333049365054215" lon="9.6866919820252"><ele>73.0</ele><time>2026-04-25T09:00:04Z</time></trkpt><trkpt lat="45.33305718746565" lon="9.686828146416662"><ele>73.0</ele><time>2026-04-25T09:00:07Z</time></trkpt><trkpt lat="45.33306117646563" lon="9.686937349202989"><ele>73.0</ele><time>2026-04-25T09:00:10Z</time></trkpt><trkpt lat="45.33307006749845" lon="9.68703973975229"><ele>73.0</ele><time>2026-04-25T09:00:13Z</time></trkpt><trkpt lat="45.33307627898613" lon="9.68715101792194"><ele>73.0</ele><time>2026-04-25T09:00:16Z</time></trkpt><trkpt lat="45.33308011850016" lon="9.687267362750172"><ele>73.0</ele><time>2026-04-25T09:00:19Z</time></trkpt><trkpt lat="45.333078373911576" lon="9.687379492732338"><ele>73.0</ele><time>2026-04-25T09:00:22Z</time></trkpt><trkpt lat="45.33308348202952" lon="9.687490758578173"><ele>73.0</ele><time>2026-04-25T09:00:25Z</time></trkpt><trkpt lat="45.333094661313666" lon="9.68759540642863"><ele>73.0</ele><time>2026-04-25T09:00:28Z</time></trkpt><trkpt lat="45.333101879681685" lon="9.687707797421215"><ele>73.0</ele><time>2026-04-25T09:00:31Z</time></trkpt><trkpt lat="45.33310181044051" lon="9.687816885772104"><ele>72.0</ele><time>2026-04-25T09:00:34Z</time></trkpt><trkpt lat="45.333122827445166" lon="9.687938193243504"><ele>72.0</ele><time>2026-04-25T09:00:37Z</time></trkpt></trkseg></trk></gpx>